createdAt,value
2023-03-26T00:00:29.944Z,97729.23
2023-03-26T00:11:17.330Z,97735.41
2023-03-26T00:21:43.349Z,97732.79
2023-03-26T00:32:09.491Z,97739.60
2023-03-26T00:42:35.666Z,97719.35
2023-03-26T00:53:01.579Z,97712.27
2023-03-26T01:03:29.343Z,97695.26
2023-03-26T01:13:59.248Z,97691.90
2023-03-26T01:24:24.769Z,97685.23
2023-03-26T01:35:02.978Z,97680.95
2023-03-26T01:45:33.471Z,97676.39
2023-03-26T01:56:11.013Z,97676.55
2023-03-26T02:06:45.798Z,97673.83
2023-03-26T02:17:11.994Z,97667.01
2023-03-26T02:27:37.960Z,97667.55
2023-03-26T02:38:03.900Z,97678.02
2023-03-26T02:48:38.348Z,97678.44
2023-03-26T02:59:04.189Z,97662.16
2023-03-26T03:09:30.678Z,97647.91
2023-03-26T03:19:56.121Z,97653.91
2023-03-26T03:30:22.294Z,97649.94
2023-03-26T03:40:48.613Z,97648.39
2023-03-26T03:51:14.003Z,97651.97
2023-03-26T04:01:43.414Z,97663.85
2023-03-26T04:12:10.202Z,97664.67
2023-03-26T04:22:36.673Z,97656.80
2023-03-26T04:33:04.659Z,97656.95
2023-03-26T04:43:31.718Z,97655.73
2023-03-26T04:54:00.032Z,97654.75
2023-03-26T05:04:24.828Z,97655.84
2023-03-26T05:14:50.868Z,97649.90
2023-03-26T05:25:17.162Z,97647.64
2023-03-26T05:35:43.570Z,97646.88
2023-03-26T05:46:09.740Z,97658.23
2023-03-26T05:56:36.313Z,97658.64
2023-03-26T06:07:04.544Z,97660.71
2023-03-26T06:17:30.449Z,97671.38
2023-03-26T06:27:55.994Z,97669.70
2023-03-26T06:38:22.115Z,97672.10
2023-03-26T06:48:48.367Z,97668.75
2023-03-26T06:59:13.922Z,97668.41
2023-03-26T07:09:39.951Z,97669.13
2023-03-26T07:20:06.650Z,97672.49
2023-03-26T07:30:39.851Z,97667.35
2023-03-26T07:41:12.578Z,97667.82
2023-03-26T07:51:39.438Z,97682.35
2023-03-26T08:03:00.157Z,97674.33
2023-03-26T08:13:34.632Z,97666.31
2023-03-26T08:24:09.634Z,97661.91
2023-03-26T08:34:35.729Z,97653.43
2023-03-26T08:45:41.329Z,97636.59
2023-03-26T08:56:13.100Z,97626.31
2023-03-26T09:07:12.546Z,97616.23
2023-03-26T09:18:18.005Z,97614.83
2023-03-26T09:29:16.919Z,97602.18
2023-03-26T09:39:54.708Z,97610.13
2023-03-26T09:50:31.431Z,97604.95
2023-03-26T10:01:06.003Z,97599.42
2023-03-26T10:11:44.618Z,97594.02
2023-03-26T10:22:25.805Z,97575.23
2023-03-26T10:33:01.611Z,97572.00
2023-03-26T10:44:12.287Z,97570.43
2023-03-26T10:54:55.353Z,97566.77
2023-03-26T11:05:45.884Z,97557.52
2023-03-26T11:16:19.827Z,97537.83
2023-03-26T11:26:55.819Z,97524.50
2023-03-26T11:37:33.090Z,97517.77
2023-03-26T11:48:05.026Z,97519.66
2023-03-26T11:58:36.391Z,97507.34
2023-03-26T12:09:02.793Z,97505.70
2023-03-26T12:19:35.227Z,97484.91
2023-03-26T12:30:14.180Z,97472.98
2023-03-26T12:40:42.575Z,97463.77
2023-03-26T12:51:12.620Z,97453.66
2023-03-26T13:01:50.468Z,97439.48
2023-03-26T13:12:29.688Z,97433.58
2023-03-26T13:23:04.056Z,97408.49
2023-03-26T13:33:39.758Z,97391.34
2023-03-26T13:44:18.144Z,97384.60
2023-03-26T13:54:48.784Z,97388.84
2023-03-26T14:05:22.363Z,97380.95
2023-03-26T14:15:52.411Z,97374.54
2023-03-26T14:26:26.646Z,97361.73
2023-03-26T14:37:28.191Z,97356.97
2023-03-26T14:48:09.727Z,97351.59
2023-03-26T14:59:07.594Z,97342.08
2023-03-26T15:10:18.967Z,97334.80
2023-03-26T15:21:15.404Z,97330.88
2023-03-26T15:32:10.712Z,97318.80
2023-03-26T15:42:48.115Z,97318.45
2023-03-26T15:53:24.682Z,97310.66
2023-03-26T16:04:00.676Z,97308.77
2023-03-26T16:14:43.681Z,97299.59
2023-03-26T16:25:29.620Z,97292.38
2023-03-26T16:36:18.468Z,97289.71
2023-03-26T16:47:01.863Z,97292.73
2023-03-26T16:57:37.060Z,97287.84
2023-03-26T17:08:08.895Z,97291.28
2023-03-26T17:18:47.696Z,97294.73
2023-03-26T17:29:25.598Z,97289.80
2023-03-26T17:40:35.995Z,97294.45
2023-03-26T17:51:07.114Z,97290.28
2023-03-26T18:01:39.440Z,97291.54
2023-03-26T18:12:31.724Z,97287.29
2023-03-26T18:22:57.681Z,97304.89
2023-03-26T18:33:23.691Z,97313.64
2023-03-26T18:43:49.257Z,97321.52
2023-03-26T18:54:20.774Z,97317.43
2023-03-26T19:04:49.243Z,97316.91
2023-03-26T19:15:17.725Z,97309.45
2023-03-26T19:25:44.266Z,97311.79
2023-03-26T19:36:21.216Z,97300.81
2023-03-26T19:46:54.031Z,97290.20
2023-03-26T19:57:20.476Z,97276.91
2023-03-26T20:07:46.233Z,97263.42
2023-03-26T20:18:12.517Z,97253.83
2023-03-26T20:28:47.381Z,97236.69
2023-03-26T20:39:18.604Z,97215.80
2023-03-26T20:49:44.335Z,97205.45
2023-03-26T21:00:19.341Z,97178.39
2023-03-26T21:10:46.640Z,97170.38
2023-03-26T21:21:29.828Z,97165.27
2023-03-26T21:31:56.915Z,97170.02
2023-03-26T21:42:26.941Z,97172.66
2023-03-26T21:52:54.805Z,97158.85
2023-03-26T22:03:27.448Z,97142.67
2023-03-26T22:13:53.421Z,97143.68
2023-03-26T22:24:19.891Z,97149.83
2023-03-26T22:34:46.139Z,97146.99
2023-03-26T22:45:12.927Z,97134.24
2023-03-26T22:55:38.471Z,97127.83
2023-03-26T23:06:06.294Z,97103.64
2023-03-26T23:16:32.128Z,97098.13
2023-03-26T23:26:59.113Z,97083.08
2023-03-26T23:37:25.864Z,97084.20
2023-03-26T23:47:52.018Z,97074.77
2023-03-26T23:58:19.357Z,97080.30
